createdAt,value
2017-11-30T00:01:29.369Z,94641.92
2017-11-30T00:03:09.562Z,94782.50
2017-11-30T00:04:49.296Z,94881.79
2017-11-30T00:08:00.068Z,94757.33
2017-11-30T00:09:41.261Z,94582.66
2017-11-30T00:11:20.358Z,94507.53
2017-11-30T00:12:59.778Z,94577.58
2017-11-30T00:14:38.570Z,94687.22
2017-11-30T00:16:17.862Z,94760.91
2017-11-30T00:17:57.477Z,94959.84
2017-11-30T00:19:41.865Z,95014.89
2017-11-30T00:21:22.127Z,94970.94
2017-11-30T00:23:02.378Z,94942.17
2017-11-30T00:24:43.092Z,94962.36
2017-11-30T00:26:23.503Z,94888.64
2017-11-30T00:28:06.593Z,94788.36
2017-11-30T00:29:50.092Z,94685.84
2017-11-30T00:31:30.004Z,94618.64
2017-11-30T00:33:10.114Z,94597.66
2017-11-30T00:34:49.912Z,94570.66
2017-11-30T00:36:29.002Z,94508.58
2017-11-30T00:38:11.204Z,94465.03
2017-11-30T00:39:50.806Z,94356.80
2017-11-30T00:41:30.312Z,94341.05
2017-11-30T00:43:44.108Z,94328.27
2017-11-30T00:45:26.508Z,94341.45
2017-11-30T00:47:06.501Z,94379.95
2017-11-30T00:48:46.103Z,94478.55
2017-11-30T00:50:25.209Z,94631.90
2017-11-30T00:52:05.408Z,94807.09
2017-11-30T00:53:45.805Z,94969.52
2017-11-30T00:55:24.902Z,95052.94
2017-11-30T00:57:04.193Z,95073.92
2017-11-30T00:58:43.286Z,95055.00
2017-11-30T01:00:25.193Z,95078.77
2017-11-30T01:02:04.994Z,95054.52
2017-11-30T01:03:44.685Z,94972.20
2017-11-30T01:05:26.956Z,94897.19
2017-11-30T01:07:06.598Z,94901.02
2017-11-30T01:08:47.298Z,95034.97
2017-11-30T01:10:28.299Z,95222.13
2017-11-30T01:12:07.993Z,95277.95
2017-11-30T01:13:46.889Z,95173.43
2017-11-30T01:15:34.192Z,94990.66
2017-11-30T01:17:21.491Z,94843.98
2017-11-30T01:19:02.639Z,94711.98
2017-11-30T01:20:43.195Z,94610.83
2017-11-30T01:22:23.596Z,94527.04
2017-11-30T01:24:09.896Z,94614.86
2017-11-30T01:25:49.694Z,94796.61
2017-11-30T01:27:29.393Z,94709.71
2017-11-30T01:29:10.206Z,94477.86
2017-11-30T01:30:49.942Z,94373.67
2017-11-30T01:32:28.500Z,94408.66
2017-11-30T01:34:08.497Z,94451.35
2017-11-30T01:35:47.794Z,94530.17
2017-11-30T01:37:26.625Z,94606.26
2017-11-30T01:39:06.896Z,94719.69
2017-11-30T01:40:46.687Z,94843.56
2017-11-30T01:42:25.204Z,94947.28
2017-11-30T01:44:03.695Z,95148.23
2017-11-30T01:45:42.889Z,95289.95
2017-11-30T01:47:21.889Z,95400.93
2017-11-30T01:49:02.596Z,95464.63
2017-11-30T01:50:42.186Z,95456.41
2017-11-30T01:52:21.792Z,95266.25
2017-11-30T01:54:02.785Z,95195.55
2017-11-30T01:55:42.495Z,95330.42
2017-11-30T01:57:21.493Z,95394.03
2017-11-30T01:59:01.396Z,95393.13
2017-11-30T02:00:43.993Z,95366.89
2017-11-30T02:02:24.589Z,95286.22
2017-11-30T02:04:03.591Z,95224.23
2017-11-30T02:05:42.504Z,95206.97
2017-11-30T02:07:22.314Z,95152.06
2017-11-30T02:09:02.003Z,95098.77
2017-11-30T02:10:40.907Z,95145.73
2017-11-30T02:12:19.915Z,95131.06
2017-11-30T02:13:58.707Z,95017.98
2017-11-30T02:15:38.912Z,94854.27
2017-11-30T02:17:51.972Z,94959.78
2017-11-30T02:19:29.309Z,95057.16
2017-11-30T02:21:08.154Z,95119.12
2017-11-30T02:22:48.917Z,95154.22
2017-11-30T02:24:29.608Z,95149.48
2017-11-30T02:26:08.606Z,95150.70
2017-11-30T02:27:47.607Z,95112.95
2017-11-30T02:29:27.809Z,94994.07
2017-11-30T02:31:10.702Z,94950.22
2017-11-30T02:32:50.805Z,94812.30
2017-11-30T02:34:44.606Z,94743.37
2017-11-30T02:36:23.521Z,94822.55
2017-11-30T02:38:02.511Z,94976.98
2017-11-30T02:39:41.018Z,95074.39
2017-11-30T02:41:21.620Z,95100.17
2017-11-30T02:43:02.220Z,95123.77
2017-11-30T02:44:41.119Z,95161.05
2017-11-30T02:46:20.130Z,95156.32
2017-11-30T02:48:01.429Z,95127.17
2017-11-30T02:49:45.613Z,95085.61
2017-11-30T02:51:29.128Z,95181.80
2017-11-30T02:53:08.036Z,95175.33
2017-11-30T02:54:47.932Z,95236.30
2017-11-30T02:56:27.843Z,95276.84
2017-11-30T02:58:06.534Z,95334.80
2017-11-30T02:59:47.729Z,95349.81
2017-11-30T03:01:28.234Z,95317.61
2017-11-30T03:03:08.580Z,95394.62
2017-11-30T03:04:52.951Z,95425.97
2017-11-30T03:06:33.836Z,95462.41
2017-11-30T03:08:12.737Z,95468.89
2017-11-30T03:09:53.750Z,95331.80
2017-11-30T03:11:34.667Z,95199.86
2017-11-30T03:13:14.860Z,95129.95
2017-11-30T03:14:53.159Z,95141.91
2017-11-30T03:16:34.158Z,95108.81
2017-11-30T03:18:13.474Z,95057.41
2017-11-30T03:19:54.668Z,95111.08
2017-11-30T03:21:34.280Z,95179.34
2017-11-30T03:23:14.477Z,95126.06
2017-11-30T03:24:54.402Z,95220.22
2017-11-30T03:26:33.785Z,95400.30
2017-11-30T03:28:12.086Z,95454.44
2017-11-30T03:29:51.219Z,95310.30
2017-11-30T03:31:30.106Z,95325.46
2017-11-30T03:33:08.591Z,95260.62
2017-11-30T03:34:48.307Z,95140.75
2017-11-30T03:36:30.595Z,95260.20
2017-11-30T03:38:09.909Z,95402.41
2017-11-30T03:39:48.297Z,95451.02
2017-11-30T03:41:28.004Z,95492.78
2017-11-30T03:43:07.401Z,95306.03
2017-11-30T03:44:46.504Z,95099.39
2017-11-30T03:46:26.005Z,94923.47
2017-11-30T03:48:06.012Z,94971.92
2017-11-30T03:49:45.713Z,95050.19
2017-11-30T03:51:25.311Z,95219.66
2017-11-30T03:53:06.010Z,95312.98
2017-11-30T03:54:45.327Z,95330.42
2017-11-30T03:56:32.153Z,95341.21
2017-11-30T03:58:10.521Z,95377.01
2017-11-30T03:59:52.233Z,95282.39
2017-11-30T04:01:30.911Z,95298.75
2017-11-30T04:03:11.232Z,95062.09
2017-11-30T04:04:51.990Z,94816.23
2017-11-30T04:06:30.872Z,94743.06
2017-11-30T04:08:13.566Z,94718.96
2017-11-30T04:09:54.171Z,94877.66
2017-11-30T04:11:32.263Z,94919.05
2017-11-30T04:13:11.061Z,95049.66
2017-11-30T04:14:50.067Z,95206.81
2017-11-30T04:16:32.171Z,95288.91
2017-11-30T04:18:10.457Z,95239.97
2017-11-30T04:19:48.860Z,95134.54
2017-11-30T04:21:29.558Z,95136.02
2017-11-30T04:23:08.560Z,95183.23
2017-11-30T04:24:47.254Z,95297.97
2017-11-30T04:26:27.747Z,95405.47
2017-11-30T04:28:07.540Z,95330.59
2017-11-30T04:29:47.349Z,95196.39
2017-11-30T04:31:27.047Z,95057.89
2017-11-30T04:33:09.745Z,95192.27
2017-11-30T04:34:49.659Z,95181.55
2017-11-30T04:36:30.033Z,95131.66
2017-11-30T04:38:09.938Z,95008.06
2017-11-30T04:39:49.135Z,94924.84
2017-11-30T04:41:27.548Z,94884.95
2017-11-30T04:43:05.734Z,94981.13
2017-11-30T04:44:44.536Z,95126.53
2017-11-30T04:46:24.620Z,95140.75
2017-11-30T04:48:03.035Z,95187.06
2017-11-30T04:49:41.428Z,95259.36
2017-11-30T04:51:21.525Z,95365.94
2017-11-30T04:53:00.624Z,95484.14
2017-11-30T04:54:39.222Z,95499.73
2017-11-30T04:56:18.239Z,95546.63
2017-11-30T04:57:57.432Z,95496.27
2017-11-30T04:59:35.532Z,95393.07
2017-11-30T05:01:14.523Z,95340.95
2017-11-30T05:02:54.526Z,95360.30
2017-11-30T05:04:32.424Z,95467.42
2017-11-30T05:06:11.423Z,95482.55
2017-11-30T05:07:49.329Z,95470.42
2017-11-30T05:09:27.416Z,95380.06
2017-11-30T05:11:05.714Z,95381.16
2017-11-30T05:12:44.416Z,95465.82
2017-11-30T05:14:25.021Z,95432.61
2017-11-30T05:16:06.422Z,95235.29
2017-11-30T05:17:45.825Z,95220.28
2017-11-30T05:19:26.718Z,95363.77
2017-11-30T05:21:07.049Z,95372.83
2017-11-30T05:22:46.560Z,95459.81
2017-11-30T05:24:26.222Z,95557.04
2017-11-30T05:26:05.335Z,95585.48
2017-11-30T05:27:43.945Z,95597.19
2017-11-30T05:29:22.753Z,95566.53
2017-11-30T05:31:03.659Z,95566.64
2017-11-30T05:32:42.164Z,95564.79
2017-11-30T05:34:25.172Z,95587.69
2017-11-30T05:36:01.587Z,95583.79
2017-11-30T05:37:42.193Z,95587.75
2017-11-30T05:39:22.589Z,95647.75
2017-11-30T05:40:59.960Z,95673.05
2017-11-30T05:42:37.016Z,95641.63
2017-11-30T05:44:13.429Z,95674.32
2017-11-30T05:45:51.889Z,95718.73
2017-11-30T05:47:31.597Z,95747.67
2017-11-30T05:49:11.694Z,95770.44
2017-11-30T05:50:50.190Z,95772.13
2017-11-30T05:52:28.296Z,95754.11
2017-11-30T05:54:07.496Z,95787.35
2017-11-30T05:55:45.396Z,95814.56
2017-11-30T05:57:26.212Z,95869.73
2017-11-30T05:59:15.798Z,95775.30
2017-11-30T06:00:52.305Z,95794.27
2017-11-30T06:02:31.695Z,95857.69
2017-11-30T06:04:11.200Z,95822.69
2017-11-30T06:05:52.718Z,95894.37
2017-11-30T06:07:37.925Z,95907.70
2017-11-30T06:09:16.979Z,95958.30
2017-11-30T06:10:54.034Z,95953.13
2017-11-30T06:12:31.295Z,95968.30
2017-11-30T06:14:10.697Z,95745.14
2017-11-30T06:15:50.706Z,95755.53
2017-11-30T06:17:29.695Z,95799.50
2017-11-30T06:19:20.828Z,95661.06
2017-11-30T06:21:00.703Z,95516.34
2017-11-30T06:22:39.911Z,95619.77
2017-11-30T06:24:18.297Z,95734.45
2017-11-30T06:25:58.414Z,95772.77
2017-11-30T06:27:37.600Z,95721.14
2017-11-30T06:29:15.698Z,95694.00
2017-11-30T06:30:54.599Z,95770.27
2017-11-30T06:32:33.393Z,95872.84
2017-11-30T06:34:12.305Z,95824.12
2017-11-30T06:35:50.601Z,95948.84
2017-11-30T06:37:28.699Z,96046.96
2017-11-30T06:39:08.496Z,96036.26
2017-11-30T06:40:48.395Z,96028.80
2017-11-30T06:42:27.194Z,96061.23
2017-11-30T06:44:08.501Z,96089.73
2017-11-30T06:45:46.699Z,96081.98
2017-11-30T06:47:25.108Z,96076.43
2017-11-30T06:49:03.697Z,96101.05
2017-11-30T06:50:42.298Z,96081.14
2017-11-30T06:52:21.492Z,95911.77
2017-11-30T06:53:59.892Z,95775.93
2017-11-30T06:55:38.098Z,95879.50
2017-11-30T06:57:16.101Z,95996.52
2017-11-30T06:58:54.409Z,96110.25
2017-11-30T07:00:33.307Z,96105.80
2017-11-30T07:02:11.198Z,95976.22
2017-11-30T07:03:51.101Z,95889.83
2017-11-30T07:05:29.324Z,95996.14
2017-11-30T07:07:08.001Z,96098.03
2017-11-30T07:08:46.212Z,96130.90
2017-11-30T07:10:27.414Z,96022.02
2017-11-30T07:12:07.219Z,95899.28
2017-11-30T07:13:45.822Z,95897.59
2017-11-30T07:15:26.330Z,95904.88
2017-11-30T07:17:05.032Z,95934.30
2017-11-30T07:18:42.937Z,95905.83
2017-11-30T07:20:21.340Z,95919.59
2017-11-30T07:21:59.646Z,95986.11
2017-11-30T07:23:38.345Z,96004.67
2017-11-30T07:25:17.552Z,95892.47
2017-11-30T07:26:55.967Z,95974.47
2017-11-30T07:28:34.243Z,95972.31
2017-11-30T07:30:14.173Z,95982.73
2017-11-30T07:31:53.347Z,95887.73
2017-11-30T07:33:31.690Z,95927.77
2017-11-30T07:35:10.149Z,96053.20
2017-11-30T07:36:48.349Z,96117.66
2017-11-30T07:38:27.160Z,96089.78
2017-11-30T07:40:06.963Z,96071.72
2017-11-30T07:41:46.382Z,96095.15
2017-11-30T07:43:24.862Z,96121.00
2017-11-30T07:46:42.957Z,96054.84
2017-11-30T07:48:21.648Z,96032.82
2017-11-30T07:50:06.849Z,96009.48
2017-11-30T07:51:49.641Z,95948.19
2017-11-30T07:53:30.952Z,95832.94
2017-11-30T07:55:09.335Z,95786.80
2017-11-30T07:56:48.840Z,95839.80
2017-11-30T07:58:27.845Z,95905.78
2017-11-30T08:00:08.339Z,95932.16
2017-11-30T08:01:47.234Z,95901.55
2017-11-30T08:03:25.134Z,95926.19
2017-11-30T08:05:06.135Z,95912.24
2017-11-30T08:06:46.436Z,95959.84
2017-11-30T08:08:25.634Z,95992.70
2017-11-30T08:10:05.936Z,95990.14
2017-11-30T08:11:45.644Z,95995.72
2017-11-30T08:13:25.138Z,95930.47
2017-11-30T08:15:04.132Z,95856.19
2017-11-30T08:16:43.940Z,95816.59
2017-11-30T08:18:24.042Z,95734.23
2017-11-30T08:20:04.970Z,95823.99
2017-11-30T08:21:45.065Z,95827.77
2017-11-30T08:23:24.091Z,95904.24
2017-11-30T08:25:03.083Z,95917.95
2017-11-30T08:26:42.743Z,95797.09
2017-11-30T08:28:22.071Z,95794.14
2017-11-30T08:30:02.077Z,95894.69
2017-11-30T08:31:41.701Z,96006.66
2017-11-30T08:33:20.521Z,96082.72
2017-11-30T08:35:04.297Z,96043.18
2017-11-30T08:36:43.686Z,96049.84
2017-11-30T08:38:27.997Z,96161.39
2017-11-30T08:40:09.898Z,96203.66
2017-11-30T08:41:49.895Z,96249.16
2017-11-30T08:43:29.098Z,96259.94
2017-11-30T08:45:09.001Z,96274.75
2017-11-30T08:46:51.328Z,96286.32
2017-11-30T08:48:33.369Z,96247.42
2017-11-30T08:50:16.392Z,96259.51
2017-11-30T08:51:54.996Z,96189.08
2017-11-30T08:53:35.687Z,96206.73
2017-11-30T08:55:20.684Z,96046.41
2017-11-30T08:57:01.516Z,96160.54
2017-11-30T08:59:02.235Z,96208.52
2017-11-30T09:00:44.976Z,96236.65
2017-11-30T09:02:28.334Z,96172.52
2017-11-30T09:04:08.613Z,96141.52
2017-11-30T09:05:48.778Z,96059.75
2017-11-30T09:07:29.578Z,96020.48
2017-11-30T09:09:08.029Z,96010.15
2017-11-30T09:10:46.873Z,95961.34
2017-11-30T09:12:31.674Z,95921.96
2017-11-30T09:14:13.094Z,95993.20
2017-11-30T09:15:56.183Z,95996.25
2017-11-30T09:17:37.869Z,96016.09
2017-11-30T09:19:17.877Z,95853.28
2017-11-30T09:20:57.796Z,95627.45
2017-11-30T09:22:38.788Z,95653.80
2017-11-30T09:24:20.184Z,95760.21
2017-11-30T09:26:00.204Z,95715.79
2017-11-30T09:27:41.606Z,95745.12
2017-11-30T09:31:17.461Z,95785.59
2017-11-30T09:32:59.973Z,95696.74
2017-11-30T09:34:45.568Z,95649.75
2017-11-30T09:36:27.207Z,95652.77
2017-11-30T09:38:04.545Z,95640.66
2017-11-30T09:39:42.820Z,95659.72
2017-11-30T09:41:24.195Z,95599.44
2017-11-30T09:43:11.599Z,95556.01
2017-11-30T09:44:50.455Z,95577.91
2017-11-30T09:46:31.146Z,95660.56
2017-11-30T09:48:09.848Z,95633.80
2017-11-30T09:49:49.249Z,95606.62
2017-11-30T09:51:36.540Z,95553.27
2017-11-30T09:53:14.862Z,95568.00
2017-11-30T09:54:55.471Z,95596.37
2017-11-30T09:56:35.658Z,95642.98
2017-11-30T09:58:14.052Z,95687.28
2017-11-30T09:59:54.295Z,95700.59
2017-11-30T10:01:37.110Z,95767.56
2017-11-30T10:03:19.137Z,95760.50
2017-11-30T10:04:58.997Z,95760.97
2017-11-30T10:06:38.597Z,95760.97
2017-11-30T10:08:17.203Z,95729.90
2017-11-30T10:09:56.407Z,95708.88
2017-11-30T10:11:35.508Z,95682.90
2017-11-30T10:13:14.600Z,95632.54
2017-11-30T10:14:55.206Z,95654.08
2017-11-30T10:16:38.784Z,95688.48
2017-11-30T10:18:30.831Z,95602.78
2017-11-30T10:20:11.091Z,95613.59
2017-11-30T10:21:49.814Z,95514.03
2017-11-30T10:23:28.212Z,95523.20
2017-11-30T10:25:06.712Z,95657.98
2017-11-30T10:26:46.718Z,95660.62
2017-11-30T10:28:25.040Z,95650.17
2017-11-30T10:30:03.715Z,95620.92
2017-11-30T10:31:45.016Z,95639.50
2017-11-30T10:33:21.517Z,95669.98
2017-11-30T10:35:00.609Z,95720.88
2017-11-30T10:36:41.629Z,95735.97
2017-11-30T10:38:24.697Z,95711.83
2017-11-30T10:40:03.150Z,95782.19
2017-11-30T10:41:39.699Z,95862.89
2017-11-30T10:43:18.297Z,95834.83
2017-11-30T10:44:58.596Z,95909.00
2017-11-30T10:46:41.037Z,95921.44
2017-11-30T10:48:21.302Z,95945.28
2017-11-30T10:49:58.533Z,95923.59
2017-11-30T10:51:35.769Z,95818.02
2017-11-30T10:53:13.060Z,95742.42
2017-11-30T10:54:50.484Z,95687.75
2017-11-30T10:56:29.386Z,95705.02
2017-11-30T10:58:07.875Z,95802.84
2017-11-30T10:59:53.381Z,95786.91
2017-11-30T11:01:34.895Z,95755.41
2017-11-30T11:03:14.989Z,95744.59
2017-11-30T11:04:52.357Z,95656.24
2017-11-30T11:06:30.183Z,95590.69
2017-11-30T11:08:06.958Z,95608.05
2017-11-30T11:09:47.594Z,95617.97
2017-11-30T11:11:27.189Z,95678.31
2017-11-30T11:13:06.302Z,95674.30
2017-11-30T11:14:52.191Z,95681.69
2017-11-30T11:16:29.803Z,95624.40
2017-11-30T11:18:06.279Z,95580.13
2017-11-30T11:19:42.853Z,95638.29
2017-11-30T11:21:22.207Z,95612.80
2017-11-30T11:23:07.092Z,95544.63
2017-11-30T11:24:45.786Z,95514.51
2017-11-30T11:26:27.283Z,95535.70
2017-11-30T11:28:04.908Z,95431.87
2017-11-30T11:29:41.462Z,95383.11
2017-11-30T11:31:24.052Z,95364.88
2017-11-30T11:33:03.192Z,95556.12
2017-11-30T11:34:42.494Z,95646.89
2017-11-30T11:36:23.719Z,95725.73
2017-11-30T11:38:02.592Z,95814.91
2017-11-30T11:39:41.196Z,95879.29
2017-11-30T11:41:20.699Z,95882.25
2017-11-30T11:42:59.402Z,95920.41
2017-11-30T11:44:39.850Z,95929.41
2017-11-30T11:46:19.628Z,95918.56
2017-11-30T11:47:58.223Z,95953.20
2017-11-30T11:49:44.944Z,95887.53
2017-11-30T11:51:27.828Z,95812.52
2017-11-30T11:53:07.423Z,95922.94
2017-11-30T11:55:01.940Z,95985.14
2017-11-30T11:56:46.323Z,96026.19
2017-11-30T11:58:25.227Z,96002.85
2017-11-30T12:00:03.644Z,95854.31
2017-11-30T12:01:41.760Z,95813.75
2017-11-30T12:03:18.954Z,95737.81
2017-11-30T12:04:58.743Z,95790.53
2017-11-30T12:06:35.340Z,95860.45
2017-11-30T12:08:20.845Z,95894.08
2017-11-30T12:10:07.740Z,95898.78
2017-11-30T12:11:51.139Z,95712.41
2017-11-30T12:13:30.264Z,95743.94
2017-11-30T12:15:10.449Z,95871.98
2017-11-30T12:16:50.754Z,95884.09
2017-11-30T12:18:28.461Z,95857.02
2017-11-30T12:20:08.238Z,95821.61
2017-11-30T12:21:52.676Z,95773.35
2017-11-30T12:23:34.279Z,95897.61
2017-11-30T12:25:13.137Z,96051.69
2017-11-30T12:26:51.841Z,96139.51
2017-11-30T12:28:30.242Z,96220.37
2017-11-30T12:30:10.559Z,96235.53
2017-11-30T12:31:53.358Z,96029.78
2017-11-30T12:33:32.558Z,95925.92
2017-11-30T12:35:10.099Z,96015.16
2017-11-30T12:36:59.759Z,96080.84
2017-11-30T12:38:40.756Z,96115.31
2017-11-30T12:40:35.275Z,96095.83
2017-11-30T12:42:18.454Z,95935.95
2017-11-30T12:43:58.662Z,95926.53
2017-11-30T12:45:45.374Z,95928.14
2017-11-30T12:47:25.577Z,95920.45
2017-11-30T12:49:06.073Z,95778.34
2017-11-30T12:50:47.368Z,95749.97
2017-11-30T12:52:26.256Z,95789.69
2017-11-30T12:54:02.951Z,95796.23
2017-11-30T12:55:39.686Z,95789.31
2017-11-30T12:57:25.256Z,95747.89
2017-11-30T12:59:13.376Z,95699.52
2017-11-30T13:00:56.770Z,95664.63
2017-11-30T13:02:35.287Z,95660.39
2017-11-30T13:04:13.561Z,95732.37
2017-11-30T13:05:50.606Z,95814.78
2017-11-30T13:07:29.854Z,95750.59
2017-11-30T13:09:07.672Z,95769.02
2017-11-30T13:10:46.177Z,95799.20
2017-11-30T13:12:24.457Z,95781.03
2017-11-30T13:14:05.565Z,95792.80
2017-11-30T13:15:51.657Z,95824.67
2017-11-30T13:17:29.651Z,95888.42
2017-11-30T13:19:08.855Z,95902.79
2017-11-30T13:20:52.261Z,95867.80
2017-11-30T13:22:32.075Z,95821.56
2017-11-30T13:24:15.081Z,95811.83
2017-11-30T13:25:56.376Z,95881.75
2017-11-30T13:27:37.574Z,95888.05
2017-11-30T13:29:16.183Z,95882.02
2017-11-30T13:30:57.690Z,95788.47
2017-11-30T13:32:37.783Z,95702.69
2017-11-30T13:34:15.807Z,95732.80
2017-11-30T13:35:52.987Z,95697.46
2017-11-30T13:37:36.512Z,95651.00
2017-11-30T13:39:38.982Z,95607.34
2017-11-30T13:41:29.689Z,95457.81
2017-11-30T13:43:08.001Z,95462.23
2017-11-30T13:44:49.987Z,95443.25
2017-11-30T13:46:38.513Z,95423.48
2017-11-30T13:48:19.704Z,95361.97
2017-11-30T13:50:04.608Z,95404.97
2017-11-30T13:51:44.605Z,95379.63
2017-11-30T13:53:21.681Z,95398.97
2017-11-30T13:55:01.414Z,95479.46
2017-11-30T13:56:38.402Z,95495.34
2017-11-30T13:58:26.610Z,95500.61
2017-11-30T14:00:08.909Z,95426.95
2017-11-30T14:01:52.148Z,95384.42
2017-11-30T14:03:31.484Z,95432.54
2017-11-30T14:05:08.384Z,95452.26
2017-11-30T14:06:50.900Z,95497.50
2017-11-30T14:08:39.699Z,95583.77
2017-11-30T14:10:17.672Z,95640.56
2017-11-30T14:11:57.001Z,95546.30
2017-11-30T14:13:34.391Z,95472.09
2017-11-30T14:15:12.909Z,95423.59
2017-11-30T14:16:57.288Z,95397.84
2017-11-30T14:18:43.418Z,95511.70
2017-11-30T14:20:24.805Z,95599.31
2017-11-30T14:27:53.083Z,95885.55
2017-11-30T14:29:34.907Z,95939.50
2017-11-30T14:31:15.786Z,95919.23
2017-11-30T14:32:55.437Z,96009.05
2017-11-30T14:34:35.598Z,96071.83
2017-11-30T14:36:14.393Z,95990.95
2017-11-30T14:37:55.616Z,95910.10
2017-11-30T14:39:34.821Z,95918.34
2017-11-30T14:41:13.736Z,95920.51
2017-11-30T14:42:54.715Z,95943.45
2017-11-30T14:44:36.421Z,95880.80
2017-11-30T14:46:16.326Z,95894.18
2017-11-30T14:47:56.527Z,95948.69
2017-11-30T14:49:35.728Z,96002.21
2017-11-30T14:51:19.832Z,95950.86
2017-11-30T14:53:01.888Z,95918.87
2017-11-30T14:54:48.023Z,95856.80
2017-11-30T14:56:27.246Z,95957.45
2017-11-30T14:58:06.717Z,95967.68
2017-11-30T15:00:19.621Z,95953.45
2017-11-30T15:02:01.339Z,95888.24
2017-11-30T15:03:49.923Z,95881.42
2017-11-30T15:05:31.019Z,96035.25
2017-11-30T15:07:11.019Z,96128.05
2017-11-30T15:08:54.013Z,96160.13
2017-11-30T15:10:34.655Z,96156.74
2017-11-30T15:12:14.430Z,96162.72
2017-11-30T15:13:53.015Z,96108.14
2017-11-30T15:15:30.007Z,96040.82
2017-11-30T15:17:10.224Z,96119.89
2017-11-30T15:18:51.420Z,96100.45
2017-11-30T15:20:36.426Z,96188.20
2017-11-30T15:22:18.824Z,96159.28
2017-11-30T15:23:58.446Z,96071.55
2017-11-30T15:25:43.126Z,96247.86
2017-11-30T15:27:28.733Z,96287.28
2017-11-30T15:29:14.854Z,96344.46
2017-11-30T15:30:55.069Z,96364.25
2017-11-30T15:32:45.545Z,96357.36
2017-11-30T15:34:40.248Z,96350.92
2017-11-30T15:36:26.943Z,96388.95
2017-11-30T15:38:05.439Z,96387.20
2017-11-30T15:39:45.731Z,96389.00
2017-11-30T15:41:28.439Z,96333.93
2017-11-30T15:43:17.117Z,96239.36
2017-11-30T15:44:58.622Z,96291.20
2017-11-30T15:46:37.830Z,96322.73
2017-11-30T15:48:15.022Z,96334.87
2017-11-30T15:49:54.668Z,96381.64
2017-11-30T15:51:32.600Z,96368.17
2017-11-30T15:54:43.472Z,96374.83
2017-11-30T15:56:23.814Z,96374.36
2017-11-30T15:58:04.712Z,96191.31
2017-11-30T15:59:47.304Z,96254.52
2017-11-30T16:01:24.660Z,96223.32
2017-11-30T16:03:01.149Z,96262.25
2017-11-30T16:04:39.404Z,96268.39
2017-11-30T16:06:19.912Z,96280.48
2017-11-30T16:08:00.183Z,96294.74
2017-11-30T16:09:40.605Z,96121.26
2017-11-30T16:11:21.216Z,96039.69
2017-11-30T16:13:02.224Z,96081.17
2017-11-30T16:14:44.405Z,96112.69
2017-11-30T16:16:23.916Z,96196.89
2017-11-30T16:18:03.315Z,96191.79
2017-11-30T16:19:43.526Z,96238.14
2017-11-30T16:21:24.297Z,96345.36
2017-11-30T16:23:04.930Z,96297.71
2017-11-30T16:24:46.837Z,96336.67
2017-11-30T16:26:26.944Z,96384.19
2017-11-30T16:28:10.547Z,96347.95
2017-11-30T16:29:47.478Z,96385.56
2017-11-30T16:31:26.144Z,96404.23
2017-11-30T16:33:07.258Z,96456.58
2017-11-30T16:34:47.847Z,96472.66
2017-11-30T16:36:26.658Z,96469.19
2017-11-30T16:38:14.554Z,96493.91
2017-11-30T16:40:05.862Z,96373.94
2017-11-30T16:41:45.363Z,96408.20
2017-11-30T16:43:30.498Z,96364.34
2017-11-30T16:45:09.969Z,96232.89
2017-11-30T16:46:48.461Z,96143.91
2017-11-30T16:48:33.250Z,96233.38
2017-11-30T16:50:13.386Z,96351.08
2017-11-30T16:51:59.253Z,96430.59
2017-11-30T16:53:41.444Z,96482.58
2017-11-30T16:55:20.368Z,96384.70
2017-11-30T16:57:01.928Z,96332.04
2017-11-30T16:58:42.438Z,96367.42
2017-11-30T17:00:20.772Z,96373.03
2017-11-30T17:02:02.087Z,96396.95
2017-11-30T17:03:43.769Z,96360.00
2017-11-30T17:05:22.833Z,96341.39
2017-11-30T17:07:03.138Z,96249.28
2017-11-30T17:08:43.920Z,96236.29
2017-11-30T17:10:30.689Z,96128.72
2017-11-30T17:12:10.631Z,96219.96
2017-11-30T17:13:50.434Z,96309.56
2017-11-30T17:15:33.003Z,96440.66
2017-11-30T17:17:12.041Z,96517.66
2017-11-30T17:20:23.380Z,96363.45
2017-11-30T17:22:03.360Z,96202.69
2017-11-30T17:23:43.144Z,96197.31
2017-11-30T17:25:22.253Z,96100.13
2017-11-30T17:27:02.141Z,96004.59
2017-11-30T17:28:44.066Z,96020.99
2017-11-30T17:30:24.469Z,95983.00
2017-11-30T17:32:04.087Z,95948.03
2017-11-30T17:33:42.687Z,95866.94
2017-11-30T17:35:22.972Z,95809.00
2017-11-30T17:37:01.990Z,95601.64
2017-11-30T17:38:40.977Z,95532.36
2017-11-30T17:40:20.574Z,95458.89
2017-11-30T17:42:01.381Z,95613.03
2017-11-30T17:43:40.677Z,95557.31
2017-11-30T17:45:18.449Z,95482.16
2017-11-30T17:46:55.763Z,95504.36
2017-11-30T17:48:46.993Z,95641.81
2017-11-30T17:50:28.084Z,95656.75
2017-11-30T17:52:06.987Z,95648.24
2017-11-30T17:53:46.488Z,95744.86
2017-11-30T17:55:26.398Z,95716.30
2017-11-30T17:57:07.400Z,95570.62
2017-11-30T17:58:46.424Z,95590.03
2017-11-30T18:00:26.665Z,95780.69
2017-11-30T18:02:07.757Z,95881.06
2017-11-30T18:03:53.552Z,95943.22
2017-11-30T18:05:31.741Z,95957.03
2017-11-30T18:07:11.553Z,95915.09
2017-11-30T18:08:50.235Z,95840.03
2017-11-30T18:10:41.033Z,95781.38
2017-11-30T18:12:20.433Z,95739.06
2017-11-30T18:14:02.929Z,95737.74
2017-11-30T18:15:43.020Z,95708.48
2017-11-30T18:17:25.814Z,95735.68
2017-11-30T18:19:03.264Z,95713.29
2017-11-30T18:20:42.311Z,95649.87
2017-11-30T18:22:19.614Z,95580.47
2017-11-30T18:23:57.728Z,95552.09
2017-11-30T18:25:38.438Z,95544.77
2017-11-30T18:27:15.468Z,95534.05
2017-11-30T18:28:52.981Z,95482.27
2017-11-30T18:30:32.281Z,95507.31
2017-11-30T18:32:12.110Z,95499.94
2017-11-30T18:33:49.733Z,95517.13
2017-11-30T18:35:30.830Z,95540.06
2017-11-30T18:37:18.154Z,95580.16
2017-11-30T18:39:00.733Z,95489.64
2017-11-30T18:40:38.839Z,95436.18
2017-11-30T18:42:16.007Z,95397.06
2017-11-30T18:43:54.346Z,95393.16
2017-11-30T18:45:35.336Z,95326.62
2017-11-30T18:47:19.257Z,95366.98
2017-11-30T18:49:02.055Z,95271.25
2017-11-30T18:50:40.963Z,95339.09
2017-11-30T18:52:19.159Z,95433.70
2017-11-30T18:53:58.173Z,95523.25
2017-11-30T18:55:39.067Z,95559.00
2017-11-30T18:57:25.293Z,95608.13
2017-11-30T18:59:05.378Z,95638.17
2017-11-30T19:00:42.275Z,95608.88
2017-11-30T19:02:21.713Z,95560.27
2017-11-30T19:04:01.182Z,95547.45
2017-11-30T19:05:37.845Z,95496.45
2017-11-30T19:07:15.274Z,95473.63
2017-11-30T19:08:52.870Z,95485.73
2017-11-30T19:10:32.056Z,95522.77
2017-11-30T19:12:11.282Z,95540.95
2017-11-30T19:14:01.688Z,95516.23
2017-11-30T19:15:42.394Z,95584.85
2017-11-30T19:17:19.381Z,95637.27
2017-11-30T19:18:57.386Z,95673.20
2017-11-30T19:20:39.620Z,95711.44
2017-11-30T19:22:21.855Z,95666.25
2017-11-30T19:24:01.032Z,95625.33
2017-11-30T19:25:42.789Z,95566.44
2017-11-30T19:27:24.923Z,95665.41
2017-11-30T19:29:08.616Z,95805.57
2017-11-30T19:30:46.901Z,95856.38
2017-11-30T19:32:24.803Z,95907.52
2017-11-30T19:34:04.933Z,95929.91
2017-11-30T19:35:43.298Z,95893.95
2017-11-30T19:37:22.893Z,95941.48
2017-11-30T19:39:07.063Z,95939.37
2017-11-30T19:40:47.419Z,95955.81
2017-11-30T19:42:26.514Z,95944.97
2017-11-30T19:44:07.881Z,95913.45
2017-11-30T19:45:51.805Z,95878.92
2017-11-30T19:47:32.703Z,95854.72
2017-11-30T19:49:16.298Z,95855.67
2017-11-30T19:50:53.275Z,95826.77
2017-11-30T19:52:32.003Z,95740.02
2017-11-30T19:54:14.626Z,95767.69
2017-11-30T19:55:55.291Z,95855.67